Time;durP1;ratioP1;P1;durP2;ratioP2;P2;SDS_P1;SDS_P2;PMS_P1;PMS_P2;Temp;Humidity;BMP_temperature;BMP_pressure;BME280_temperature;BME280_humidity;BME280_pressure;Samples;Min_cycle;Max_cycle;Signal;HPM_P1;HPM_P2
2023/10/29 00:01:35;;;;;;;8.30;2.63;;;;;;;;;;5052416;28;20029;-70
2023/10/29 00:04:01;;;;;;;8.85;2.40;;;;;;;;;;5052782;28;20039;-71
2023/10/29 00:06:27;;;;;;;8.00;2.60;;;;;;;;;;5052366;28;20033;-70
2023/10/29 00:08:54;;;;;;;9.73;2.90;;;;;;;;;;5056546;28;20039;-70
2023/10/29 00:11:21;;;;;;;8.32;3.47;;;;;;;;;;5056678;28;20031;-70
2023/10/29 00:13:47;;;;;;;10.77;3.28;;;;;;;;;;5056574;28;20036;-70
2023/10/29 00:16:14;;;;;;;9.40;2.95;;;;;;;;;;5056524;28;20032;-70
2023/10/29 00:18:41;;;;;;;7.82;3.00;;;;;;;;;;5056463;28;20021;-70
2023/10/29 00:21:07;;;;;;;4.45;2.47;;;;;;;;;;5056058;28;20478;-70
2023/10/29 00:23:34;;;;;;;5.55;2.75;;;;;;;;;;5056421;28;20032;-70
2023/10/29 00:26:00;;;;;;;7.00;2.90;;;;;;;;;;5056399;28;20094;-70
2023/10/29 00:28:27;;;;;;;9.80;2.95;;;;;;;;;;5056219;28;20393;-71
2023/10/29 00:30:55;;;;;;;6.38;2.50;;;;;;;;;;5056435;28;20029;-70
2023/10/29 00:33:21;;;;;;;7.55;2.72;;;;;;;;;;5056203;28;20025;-70
2023/10/29 00:35:47;;;;;;;5.28;2.70;;;;;;;;;;5055773;28;20043;-70
2023/10/29 00:38:13;;;;;;;8.90;2.97;;;;;;;;;;5056424;28;20029;-70
2023/10/29 00:40:40;;;;;;;7.05;2.95;;;;;;;;;;5056474;28;20028;-70
2023/10/29 00:43:06;;;;;;;4.78;2.47;;;;;;;;;;5056505;28;20078;-70
2023/10/29 00:45:33;;;;;;;6.90;2.70;;;;;;;;;;5055827;28;20029;-70
2023/10/29 00:48:00;;;;;;;6.03;2.67;;;;;;;;;;5055950;28;20021;-70
2023/10/29 00:50:27;;;;;;;10.10;2.85;;;;;;;;;;5055508;28;20021;-70
2023/10/29 00:52:53;;;;;;;7.10;2.60;;;;;;;;;;5055888;28;20017;-70
2023/10/29 00:55:19;;;;;;;5.40;2.70;;;;;;;;;;5055760;28;20032;-70
2023/10/29 00:57:45;;;;;;;7.68;3.13;;;;;;;;;;5056060;28;20051;-70
2023/10/29 01:00:12;;;;;;;9.23;3.05;;;;;;;;;;5056099;28;20033;-70
2023/10/29 01:02:38;;;;;;;10.43;3.20;;;;;;;;;;5055861;28;20033;-70
2023/10/29 01:05:05;;;;;;;10.95;3.15;;;;;;;;;;5055849;28;20039;-70
2023/10/29 01:07:32;;;;;;;8.85;2.75;;;;;;;;;;5055547;28;20024;-70
2023/10/29 01:09:59;;;;;;;9.23;3.25;;;;;;;;;;5055566;28;20408;-70
2023/10/29 01:12:27;;;;;;;11.80;2.83;;;;;;;;;;5055692;28;20074;-70
2023/10/29 01:14:53;;;;;;;10.82;2.75;;;;;;;;;;5055371;28;20029;-70
2023/10/29 01:17:21;;;;;;;4.38;2.20;;;;;;;;;;5055738;28;20094;-70
2023/10/29 01:19:47;;;;;;;4.55;2.58;;;;;;;;;;5054244;28;20398;-70
2023/10/29 01:22:13;;;;;;;6.28;2.60;;;;;;;;;;5055562;28;20122;-70
2023/10/29 01:24:40;;;;;;;7.15;2.65;;;;;;;;;;5054179;28;20028;-70
2023/10/29 01:27:07;;;;;;;5.90;2.25;;;;;;;;;;5055436;28;20018;-70
2023/10/29 01:29:34;;;;;;;5.93;2.30;;;;;;;;;;5055190;28;20025;-70
2023/10/29 01:32:00;;;;;;;3.97;2.42;;;;;;;;;;5055096;28;20027;-70
2023/10/29 01:34:26;;;;;;;8.88;2.58;;;;;;;;;;5054653;28;20028;-70
2023/10/29 01:36:53;;;;;;;7.75;2.30;;;;;;;;;;5055143;28;20032;-70
2023/10/29 01:39:19;;;;;;;7.57;2.20;;;;;;;;;;5054997;28;20476;-70
2023/10/29 01:41:45;;;;;;;7.57;2.22;;;;;;;;;;5054952;28;20020;-70
2023/10/29 01:44:12;;;;;;;8.85;2.17;;;;;;;;;;5054679;28;20020;-70
2023/10/29 01:46:38;;;;;;;7.28;2.40;;;;;;;;;;5054853;28;20037;-70
2023/10/29 01:49:09;;;;;;;3.78;2.10;;;;;;;;;;5054724;28;20029;-71
2023/10/29 01:51:36;;;;;;;8.55;2.10;;;;;;;;;;5054708;28;20482;-70
2023/10/29 01:54:02;;;;;;;6.72;2.28;;;;;;;;;;5054755;28;20029;-70
2023/10/29 01:56:28;;;;;;;5.97;2.60;;;;;;;;;;5054790;28;20508;-70
2023/10/29 01:58:54;;;;;;;8.43;2.60;;;;;;;;;;5054544;28;20041;-70
2023/10/29 02:01:21;;;;;;;7.63;2.05;;;;;;;;;;5054576;28;20366;-70
2023/10/29 02:03:47;;;;;;;6.07;2.25;;;;;;;;;;5054232;28;20023;-70
2023/10/29 02:06:17;;;;;;;3.75;2.20;;;;;;;;;;5054666;28;20032;-70
2023/10/29 02:08:43;;;;;;;9.52;2.08;;;;;;;;;;5054363;28;20021;-70
2023/10/29 02:11:10;;;;;;;9.60;2.38;;;;;;;;;;5054416;28;20039;-70
2023/10/29 02:13:36;;;;;;;6.85;2.50;;;;;;;;;;5054369;28;20013;-70
2023/10/29 02:16:03;;;;;;;5.40;2.20;;;;;;;;;;5054288;28;20043;-70
2023/10/29 02:18:30;;;;;;;6.15;2.35;;;;;;;;;;5053947;28;20017;-70
2023/10/29 02:20:56;;;;;;;10.10;2.38;;;;;;;;;;5054350;28;20041;-70
2023/10/29 02:23:22;;;;;;;6.75;1.95;;;;;;;;;;5054304;28;20023;-70
2023/10/29 02:25:48;;;;;;;6.88;2.25;;;;;;;;;;5052889;28;20029;-70
2023/10/29 02:28:15;;;;;;;7.32;1.85;;;;;;;;;;5054171;28;20023;-70
2023/10/29 02:30:41;;;;;;;5.45;2.00;;;;;;;;;;5052847;28;20025;-70
2023/10/29 02:33:07;;;;;;;7.55;2.10;;;;;;;;;;5053604;28;20057;-70
2023/10/29 02:35:33;;;;;;;7.57;2.20;;;;;;;;;;5053786;28;20021;-70
2023/10/29 02:38:00;;;;;;;4.75;2.25;;;;;;;;;;5054264;28;20367;-70
2023/10/29 02:40:26;;;;;;;5.72;2.20;;;;;;;;;;5054084;28;20029;-70
2023/10/29 02:42:52;;;;;;;7.32;2.20;;;;;;;;;;5053782;28;20032;-70
2023/10/29 02:45:19;;;;;;;6.38;2.22;;;;;;;;;;5053545;28;20013;-70
2023/10/29 02:47:45;;;;;;;9.07;2.40;;;;;;;;;;5053329;28;20025;-70
2023/10/29 02:50:11;;;;;;;8.38;2.80;;;;;;;;;;5054215;28;20090;-70
2023/10/29 02:52:38;;;;;;;6.55;2.78;;;;;;;;;;5053952;28;20029;-70
2023/10/29 02:55:06;;;;;;;7.10;2.70;;;;;;;;;;5053641;28;20093;-70
2023/10/29 02:57:33;;;;;;;9.07;2.90;;;;;;;;;;5053708;28;20017;-70
2023/10/29 03:00:00;;;;;;;4.78;1.98;;;;;;;;;;5053504;28;20110;-70
2023/10/29 03:02:27;;;;;;;4.90;2.53;;;;;;;;;;5053097;28;20508;-70
2023/10/29 03:04:53;;;;;;;3.65;2.10;;;;;;;;;;5053451;28;20490;-70
2023/10/29 03:07:19;;;;;;;5.93;2.45;;;;;;;;;;5053336;28;20022;-70
2023/10/29 03:09:46;;;;;;;8.20;2.70;;;;;;;;;;5053487;28;20028;-70
2023/10/29 03:12:12;;;;;;;8.82;2.95;;;;;;;;;;5053456;28;20025;-70
2023/10/29 03:14:38;;;;;;;4.13;2.17;;;;;;;;;;5053242;28;20033;-70
2023/10/29 03:17:05;;;;;;;4.13;2.22;;;;;;;;;;5052925;28;20031;-70
2023/10/29 03:19:31;;;;;;;4.85;2.22;;;;;;;;;;5053066;28;20032;-70
2023/10/29 03:21:57;;;;;;;6.15;2.60;;;;;;;;;;5052125;28;20033;-70
2023/10/29 03:24:23;;;;;;;5.75;2.38;;;;;;;;;;5052896;28;20401;-70
2023/10/29 03:26:50;;;;;;;5.55;2.45;;;;;;;;;;5052122;28;20028;-70
2023/10/29 03:29:16;;;;;;;5.10;2.10;;;;;;;;;;5053053;28;20061;-70
2023/10/29 03:31:42;;;;;;;3.28;2.10;;;;;;;;;;5052530;28;20036;-70
2023/10/29 03:34:11;;;;;;;3.85;2.20;;;;;;;;;;5053018;28;20025;-70
2023/10/29 03:36:37;;;;;;;6.25;2.42;;;;;;;;;;5052734;28;20051;-70
2023/10/29 03:39:04;;;;;;;4.05;2.10;;;;;;;;;;5052740;28;20020;-70
2023/10/29 03:41:30;;;;;;;8.35;2.38;;;;;;;;;;5052451;28;20025;-70
2023/10/29 03:43:57;;;;;;;5.82;2.22;;;;;;;;;;5052186;28;20017;-70
2023/10/29 03:46:23;;;;;;;3.88;1.80;;;;;;;;;;5052934;28;20059;-70
2023/10/29 03:48:49;;;;;;;8.73;2.10;;;;;;;;;;5052887;28;20021;-70
2023/10/29 03:51:16;;;;;;;2.00;1.80;;;;;;;;;;5052599;28;20091;-70
2023/10/29 03:53:42;;;;;;;3.78;1.90;;;;;;;;;;5052658;28;20033;-70
2023/10/29 03:56:09;;;;;;;8.60;2.20;;;;;;;;;;5052417;28;20378;-70
2023/10/29 03:58:35;;;;;;;5.40;2.28;;;;;;;;;;5052049;28;20057;-70
2023/10/29 04:01:01;;;;;;;7.97;2.55;;;;;;;;;;5052799;28;20035;-70
2023/10/29 04:03:29;;;;;;;7.88;2.10;;;;;;;;;;5052411;28;20382;-70
2023/10/29 04:05:55;;;;;;;3.50;1.80;;;;;;;;;;5051349;28;20508;-70
2023/10/29 04:08:22;;;;;;;3.47;1.98;;;;;;;;;;5052323;28;20419;-70
2023/10/29 04:10:48;;;;;;;7.68;2.58;;;;;;;;;;5052419;28;20029;-71
2023/10/29 04:13:14;;;;;;;4.80;1.98;;;;;;;;;;5052188;28;20032;-70
2023/10/29 04:15:41;;;;;;;6.22;2.33;;;;;;;;;;5052484;28;20037;-70
2023/10/29 04:18:07;;;;;;;2.70;1.77;;;;;;;;;;5052386;28;20025;-70
2023/10/29 04:20:33;;;;;;;8.10;2.08;;;;;;;;;;5052261;28;20035;-70
2023/10/29 04:23:00;;;;;;;6.43;1.88;;;;;;;;;;5052597;28;20035;-70
2023/10/29 04:25:26;;;;;;;9.65;2.70;;;;;;;;;;5052669;28;20027;-70
2023/10/29 04:27:52;;;;;;;4.80;2.33;;;;;;;;;;5051932;28;20022;-70
2023/10/29 04:30:19;;;;;;;5.32;2.67;;;;;;;;;;5051371;28;20051;-70
2023/10/29 04:32:45;;;;;;;7.13;3.00;;;;;;;;;;5052149;28;20057;-70
2023/10/29 04:35:11;;;;;;;7.70;2.80;;;;;;;;;;5052468;28;20026;-70
2023/10/29 04:37:37;;;;;;;12.98;3.97;;;;;;;;;;5052176;28;20025;-70
2023/10/29 04:40:04;;;;;;;8.88;3.58;;;;;;;;;;5052496;28;20025;-70
2023/10/29 04:42:30;;;;;;;9.65;3.38;;;;;;;;;;5051787;28;20481;-70
2023/10/29 04:44:57;;;;;;;5.85;2.70;;;;;;;;;;5052174;28;20051;-70
2023/10/29 04:47:23;;;;;;;7.07;2.70;;;;;;;;;;5051108;28;20027;-70
2023/10/29 04:49:49;;;;;;;5.18;2.30;;;;;;;;;;5052640;28;20086;-70
2023/10/29 04:52:16;;;;;;;7.13;2.72;;;;;;;;;;5052219;28;20027;-69
2023/10/29 04:54:42;;;;;;;8.02;2.58;;;;;;;;;;5053962;28;20035;-70
2023/10/29 04:57:09;;;;;;;10.55;2.80;;;;;;;;;;5055251;28;20032;-70
2023/10/29 04:59:36;;;;;;;9.25;2.38;;;;;;;;;;5055592;28;20502;-70
2023/10/29 05:02:03;;;;;;;10.30;2.55;;;;;;;;;;5055875;28;20035;-70
2023/10/29 05:04:30;;;;;;;8.88;2.50;;;;;;;;;;5055589;28;20021;-70
2023/10/29 05:06:57;;;;;;;4.15;2.22;;;;;;;;;;5055603;28;20529;-70
2023/10/29 05:09:23;;;;;;;3.38;2.22;;;;;;;;;;5055600;28;20021;-70
2023/10/29 05:11:50;;;;;;;4.45;2.70;;;;;;;;;;5055097;28;20029;-70
2023/10/29 05:14:16;;;;;;;7.05;2.10;;;;;;;;;;5055528;28;20540;-70
2023/10/29 05:16:42;;;;;;;4.95;2.58;;;;;;;;;;5055588;28;20044;-69
2023/10/29 05:19:09;;;;;;;4.85;2.45;;;;;;;;;;5055603;28;20025;-70
2023/10/29 05:21:35;;;;;;;8.00;2.55;;;;;;;;;;5055188;28;20508;-70
2023/10/29 05:24:02;;;;;;;8.75;2.60;;;;;;;;;;5055274;28;20466;-70
2023/10/29 05:26:28;;;;;;;8.18;2.70;;;;;;;;;;5055198;28;20021;-70
2023/10/29 05:28:55;;;;;;;4.18;2.63;;;;;;;;;;5055055;28;20020;-70
2023/10/29 05:31:21;;;;;;;7.40;2.88;;;;;;;;;;5055184;28;20025;-70
2023/10/29 05:33:47;;;;;;;8.05;2.80;;;;;;;;;;5055261;28;20029;-70
2023/10/29 05:36:14;;;;;;;5.55;2.58;;;;;;;;;;5053862;28;20044;-70
2023/10/29 05:38:40;;;;;;;8.80;2.58;;;;;;;;;;5055068;28;20025;-70
2023/10/29 05:41:06;;;;;;;7.55;3.10;;;;;;;;;;5054589;28;20028;-70
2023/10/29 05:43:34;;;;;;;13.32;2.90;;;;;;;;;;5055373;28;20031;-70
2023/10/29 05:46:00;;;;;;;6.78;2.75;;;;;;;;;;5054820;28;20477;-70
2023/10/29 05:48:27;;;;;;;7.43;2.60;;;;;;;;;;5054838;28;20043;-70
2023/10/29 05:50:53;;;;;;;10.82;3.17;;;;;;;;;;5055066;28;20029;-70
2023/10/29 05:53:19;;;;;;;6.90;2.80;;;;;;;;;;5053874;28;20025;-70
2023/10/29 05:55:45;;;;;;;5.20;2.83;;;;;;;;;;5054441;28;20029;-70
2023/10/29 05:58:12;;;;;;;9.98;3.20;;;;;;;;;;5054375;28;20501;-70
2023/10/29 06:00:38;;;;;;;10.43;3.30;;;;;;;;;;5054534;28;20033;-70
2023/10/29 06:03:04;;;;;;;7.68;2.85;;;;;;;;;;5054573;28;20389;-70
2023/10/29 06:05:31;;;;;;;5.47;3.22;;;;;;;;;;5054362;28;20021;-70
2023/10/29 06:07:58;;;;;;;8.82;3.80;;;;;;;;;;5054508;28;20031;-70
2023/10/29 06:10:24;;;;;;;13.68;3.30;;;;;;;;;;5053944;28;20025;-70
2023/10/29 06:12:50;;;;;;;9.02;3.72;;;;;;;;;;5054692;28;20033;-70
2023/10/29 06:15:17;;;;;;;6.88;3.03;;;;;;;;;;5054357;28;20037;-70
2023/10/29 06:17:43;;;;;;;10.00;3.40;;;;;;;;;;5054304;28;20027;-70
2023/10/29 06:20:11;;;;;;;5.15;3.33;;;;;;;;;;5053088;28;20033;-70
2023/10/29 06:22:37;;;;;;;10.02;3.65;;;;;;;;;;5054207;28;20013;-70
2023/10/29 06:25:04;;;;;;;10.63;3.67;;;;;;;;;;5053878;28;20149;-69
2023/10/29 06:27:30;;;;;;;13.02;3.38;;;;;;;;;;5052912;28;20037;-70
2023/10/29 06:29:56;;;;;;;9.57;3.78;;;;;;;;;;5054176;28;20036;-70
2023/10/29 06:32:23;;;;;;;7.72;3.42;;;;;;;;;;5052799;28;20024;-70
2023/10/29 06:34:49;;;;;;;5.22;3.10;;;;;;;;;;5053964;28;20547;-70
2023/10/29 06:37:16;;;;;;;8.40;3.65;;;;;;;;;;5053889;28;20037;-70
2023/10/29 06:39:42;;;;;;;5.72;3.33;;;;;;;;;;5053519;28;20021;-70
2023/10/29 06:42:08;;;;;;;9.90;3.78;;;;;;;;;;5053781;28;20466;-70
2023/10/29 06:44:35;;;;;;;7.03;3.55;;;;;;;;;;5053556;28;20031;-70
2023/10/29 06:47:01;;;;;;;5.05;3.33;;;;;;;;;;5053712;28;20028;-70
2023/10/29 06:49:28;;;;;;;9.35;3.65;;;;;;;;;;5053938;28;20081;-70
2023/10/29 06:51:55;;;;;;;59.90;27.90;;;;;;;;;;5053434;28;20021;-70
2023/10/29 06:54:21;;;;;;;63.92;31.95;;;;;;;;;;5053210;28;20025;-70
2023/10/29 06:56:47;;;;;;;43.63;24.17;;;;;;;;;;5053390;28;20504;-70
2023/10/29 06:59:13;;;;;;;31.45;18.65;;;;;;;;;;5053299;28;20051;-70
2023/10/29 07:01:40;;;;;;;30.55;14.65;;;;;;;;;;5053640;28;20025;-70
2023/10/29 07:04:07;;;;;;;29.60;12.60;;;;;;;;;;5053484;28;20016;-70
2023/10/29 07:06:33;;;;;;;17.30;9.00;;;;;;;;;;5053452;28;20027;-70
2023/10/29 07:08:59;;;;;;;22.38;10.57;;;;;;;;;;5053203;28;20035;-70
2023/10/29 07:11:28;;;;;;;26.65;11.15;;;;;;;;;;5053307;28;20496;-70
2023/10/29 07:13:54;;;;;;;13.68;6.65;;;;;;;;;;5053322;28;20543;-70
2023/10/29 07:16:21;;;;;;;8.77;5.03;;;;;;;;;;5052642;28;20094;-70
2023/10/29 07:18:47;;;;;;;7.55;3.90;;;;;;;;;;5053014;28;20039;-70
2023/10/29 07:21:14;;;;;;;24.30;9.40;;;;;;;;;;5053328;28;20436;-70
2023/10/29 07:23:41;;;;;;;69.35;37.60;;;;;;;;;;5052786;28;20032;-70
2023/10/29 07:26:07;;;;;;;43.35;20.05;;;;;;;;;;5053023;28;20037;-70
2023/10/29 07:28:34;;;;;;;54.03;30.00;;;;;;;;;;5053034;28;20012;-70
2023/10/29 07:31:02;;;;;;;37.65;21.17;;;;;;;;;;5052902;28;20405;-70
2023/10/29 07:33:29;;;;;;;16.25;9.75;;;;;;;;;;5052833;28;20379;-70
2023/10/29 07:35:55;;;;;;;36.65;21.45;;;;;;;;;;5052565;28;20037;-70
2023/10/29 07:38:21;;;;;;;34.05;17.67;;;;;;;;;;5052933;28;20029;-70
2023/10/29 07:40:50;;;;;;;40.40;23.05;;;;;;;;;;5053140;28;20347;-70
2023/10/29 07:43:16;;;;;;;28.95;18.52;;;;;;;;;;5052803;28;20021;-71
2023/10/29 07:45:43;;;;;;;36.67;19.38;;;;;;;;;;5052419;28;20025;-70
2023/10/29 07:48:10;;;;;;;28.77;17.40;;;;;;;;;;5052767;28;20029;-70
2023/10/29 07:50:36;;;;;;;11.68;6.68;;;;;;;;;;5052535;28;20025;-70
2023/10/29 07:53:02;;;;;;;11.15;5.88;;;;;;;;;;5052653;28;20020;-70
2023/10/29 07:55:29;;;;;;;11.50;6.90;;;;;;;;;;5051539;28;20043;-70
2023/10/29 07:57:55;;;;;;;16.70;8.57;;;;;;;;;;5051731;28;20037;-70
2023/10/29 08:00:21;;;;;;;17.63;7.55;;;;;;;;;;5052515;28;20502;-70
2023/10/29 08:02:48;;;;;;;15.43;7.03;;;;;;;;;;5052814;28;20031;-70
2023/10/29 08:05:14;;;;;;;12.27;5.65;;;;;;;;;;5050957;28;20382;-70
2023/10/29 08:07:41;;;;;;;12.35;5.40;;;;;;;;;;5052559;28;20470;-70
2023/10/29 08:10:08;;;;;;;12.43;5.75;;;;;;;;;;5052408;28;20027;-70
2023/10/29 08:12:34;;;;;;;9.95;5.68;;;;;;;;;;5052430;28;20041;-70
2023/10/29 08:15:00;;;;;;;8.90;5.88;;;;;;;;;;5052408;28;20083;-70
2023/10/29 08:17:29;;;;;;;10.15;5.03;;;;;;;;;;5052422;28;20039;-70
2023/10/29 08:19:55;;;;;;;6.32;3.20;;;;;;;;;;5052301;28;20031;-70
2023/10/29 08:22:22;;;;;;;8.48;3.63;;;;;;;;;;5052568;28;20070;-70
2023/10/29 08:24:49;;;;;;;7.68;3.35;;;;;;;;;;5052408;28;20413;-70
2023/10/29 08:27:15;;;;;;;8.60;3.22;;;;;;;;;;5052329;28;20017;-70
2023/10/29 08:29:43;;;;;;;9.05;3.25;;;;;;;;;;5055971;28;20105;-70
2023/10/29 08:32:09;;;;;;;7.18;2.88;;;;;;;;;;5055135;28;20029;-70
2023/10/29 08:34:36;;;;;;;5.53;2.60;;;;;;;;;;5055887;28;20035;-70
2023/10/29 08:37:02;;;;;;;11.65;3.03;;;;;;;;;;5056113;28;20029;-70
2023/10/29 08:39:29;;;;;;;8.25;3.05;;;;;;;;;;5056432;28;20021;-70
2023/10/29 08:41:56;;;;;;;7.55;3.10;;;;;;;;;;5054883;28;20040;-70
2023/10/29 08:44:22;;;;;;;4.88;2.85;;;;;;;;;;5055914;28;20013;-70
2023/10/29 08:46:48;;;;;;;6.10;2.90;;;;;;;;;;5056262;28;20063;-70
2023/10/29 08:49:15;;;;;;;6.60;2.63;;;;;;;;;;5055797;28;20020;-70
2023/10/29 08:51:41;;;;;;;5.47;2.88;;;;;;;;;;5056178;28;20101;-70
2023/10/29 08:54:08;;;;;;;9.52;3.13;;;;;;;;;;5055951;28;20087;-70
2023/10/29 08:56:35;;;;;;;6.00;3.08;;;;;;;;;;5054559;28;20033;-70
2023/10/29 08:59:05;;;;;;;7.80;3.30;;;;;;;;;;5055529;28;20041;-70
2023/10/29 09:01:31;;;;;;;9.57;2.97;;;;;;;;;;5055678;28;20424;-70
2023/10/29 09:03:58;;;;;;;8.52;3.28;;;;;;;;;;5055587;28;20485;-70
2023/10/29 09:06:24;;;;;;;7.82;3.60;;;;;;;;;;5055675;28;20489;-71
2023/10/29 09:08:52;;;;;;;7.80;3.25;;;;;;;;;;5055828;28;20052;-70
2023/10/29 09:11:18;;;;;;;5.82;3.40;;;;;;;;;;5055528;28;20093;-70
2023/10/29 09:13:44;;;;;;;5.60;3.55;;;;;;;;;;5055525;28;20029;-70
2023/10/29 09:16:11;;;;;;;27.80;10.82;;;;;;;;;;5055433;28;20048;-70
2023/10/29 09:18:37;;;;;;;11.10;4.10;;;;;;;;;;5055124;28;20029;-70
2023/10/29 09:21:04;;;;;;;7.15;3.25;;;;;;;;;;5055352;28;20025;-70
2023/10/29 09:23:32;;;;;;;8.50;3.33;;;;;;;;;;5054624;28;20021;-71
2023/10/29 09:25:59;;;;;;;6.88;3.30;;;;;;;;;;5055270;28;20488;-70
2023/10/29 09:28:26;;;;;;;12.00;3.50;;;;;;;;;;5055382;28;20017;-70
2023/10/29 09:30:53;;;;;;;8.88;4.00;;;;;;;;;;5055453;28;20021;-70
2023/10/29 09:33:19;;;;;;;6.63;3.08;;;;;;;;;;5055150;28;20039;-70
2023/10/29 09:35:46;;;;;;;11.90;3.90;;;;;;;;;;5054954;28;20033;-70
2023/10/29 09:38:12;;;;;;;11.63;3.80;;;;;;;;;;5055014;28;20500;-71
2023/10/29 09:40:38;;;;;;;7.55;3.60;;;;;;;;;;5054538;28;20025;-71
2023/10/29 09:43:09;;;;;;;6.60;3.42;;;;;;;;;;5055217;28;20054;-71
2023/10/29 09:45:45;;;;;;;10.20;3.90;;;;;;;;;;5054774;28;20025;-71
2023/10/29 09:48:15;;;;;;;13.98;3.80;;;;;;;;;;5054591;28;20035;-71
2023/10/29 09:50:43;;;;;;;7.93;3.50;;;;;;;;;;5054838;28;20024;-71
2023/10/29 09:53:12;;;;;;;8.65;3.40;;;;;;;;;;5054838;28;20025;-71
2023/10/29 09:55:40;;;;;;;9.63;3.85;;;;;;;;;;5054654;28;20086;-71
2023/10/29 09:58:06;;;;;;;5.53;3.10;;;;;;;;;;5054606;28;20465;-70
2023/10/29 10:00:33;;;;;;;7.97;3.15;;;;;;;;;;5054640;28;20037;-71
2023/10/29 10:02:59;;;;;;;6.82;3.05;;;;;;;;;;5054229;28;20024;-71
2023/10/29 10:05:27;;;;;;;8.20;2.60;;;;;;;;;;5054620;28;20385;-71
2023/10/29 10:07:58;;;;;;;8.32;2.80;;;;;;;;;;5054653;28;20017;-71
2023/10/29 10:10:36;;;;;;;5.90;2.75;;;;;;;;;;5054571;28;20534;-71
2023/10/29 10:13:02;;;;;;;6.03;2.67;;;;;;;;;;5053467;28;20040;-71
2023/10/29 10:15:28;;;;;;;10.05;2.60;;;;;;;;;;5054303;28;20021;-70
2023/10/29 10:17:59;;;;;;;7.00;2.75;;;;;;;;;;5054294;28;20460;-71
2023/10/29 10:20:26;;;;;;;6.20;2.60;;;;;;;;;;5053264;28;20024;-71
2023/10/29 10:22:56;;;;;;;9.07;3.03;;;;;;;;;;5054444;28;20027;-71
2023/10/29 10:25:23;;;;;;;5.90;2.67;;;;;;;;;;5054734;28;20029;-71
2023/10/29 10:27:51;;;;;;;5.05;2.63;;;;;;;;;;5054134;28;20667;-71
2023/10/29 10:30:24;;;;;;;9.77;3.25;;;;;;;;;;5053647;28;20020;-71
2023/10/29 10:32:51;;;;;;;8.15;3.28;;;;;;;;;;5054129;28;20035;-71
2023/10/29 10:35:17;;;;;;;8.65;3.10;;;;;;;;;;5053791;28;20031;-71
2023/10/29 10:37:55;;;;;;;9.32;3.60;;;;;;;;;;5054005;28;20031;-71
2023/10/29 10:40:26;;;;;;;5.57;3.33;;;;;;;;;;5052711;28;20029;-70
2023/10/29 10:42:56;;;;;;;8.65;3.30;;;;;;;;;;5053936;28;20039;-71
2023/10/29 10:45:26;;;;;;;16.55;3.38;;;;;;;;;;5053354;28;20035;-71
2023/10/29 10:48:00;;;;;;;6.40;3.35;;;;;;;;;;5053993;28;20035;-71
2023/10/29 10:50:28;;;;;;;10.07;4.82;;;;;;;;;;5053815;28;20051;-71
2023/10/29 10:52:56;;;;;;;13.63;5.35;;;;;;;;;;5052648;28;20025;-71
2023/10/29 10:55:24;;;;;;;9.82;5.22;;;;;;;;;;5053870;28;20405;-70
2023/10/29 10:57:50;;;;;;;10.45;4.13;;;;;;;;;;5053350;28;20040;-71
2023/10/29 11:00:17;;;;;;;9.30;4.55;;;;;;;;;;5053110;28;20029;-71
2023/10/29 11:02:44;;;;;;;13.65;4.50;;;;;;;;;;5053689;28;20025;-71
2023/10/29 11:05:11;;;;;;;12.00;4.72;;;;;;;;;;5053686;28;20021;-71
2023/10/29 11:07:38;;;;;;;13.90;5.65;;;;;;;;;;5053600;28;20029;-71
2023/10/29 11:10:08;;;;;;;10.90;5.38;;;;;;;;;;5053570;28;20107;-71
2023/10/29 11:12:37;;;;;;;11.38;5.90;;;;;;;;;;5053351;28;20021;-71
2023/10/29 11:15:15;;;;;;;15.80;5.35;;;;;;;;;;5051747;28;20031;-71
2023/10/29 11:18:01;;;;;;;8.98;4.75;;;;;;;;;;5053184;28;20070;-71
2023/10/29 11:20:37;;;;;;;14.20;5.00;;;;;;;;;;5052220;28;20025;-71
2023/10/29 11:23:07;;;;;;;16.30;4.75;;;;;;;;;;5053123;28;20013;-71
2023/10/29 11:25:34;;;;;;;13.73;4.70;;;;;;;;;;5053255;28;20021;-71
2023/10/29 11:28:01;;;;;;;12.55;4.95;;;;;;;;;;5052635;28;20024;-71
2023/10/29 11:30:28;;;;;;;12.30;4.30;;;;;;;;;;5052837;28;20021;-71
2023/10/29 11:33:12;;;;;;;9.80;2.30;;;;;;;;;;5052954;28;20028;-71
2023/10/29 11:35:39;;;;;;;16.98;4.00;;;;;;;;;;5052734;28;20486;-71
2023/10/29 11:38:24;;;;;;;10.35;3.13;;;;;;;;;;5052851;28;20386;-71
2023/10/29 11:40:50;;;;;;;7.03;2.03;;;;;;;;;;5052798;28;20025;-71
2023/10/29 11:43:20;;;;;;;8.48;2.58;;;;;;;;;;5052390;28;20405;-71
2023/10/29 11:45:59;;;;;;;9.02;2.45;;;;;;;;;;5052430;28;20025;-71
2023/10/29 11:48:26;;;;;;;11.13;2.58;;;;;;;;;;5052690;28;20025;-71
2023/10/29 11:51:10;;;;;;;7.53;1.75;;;;;;;;;;5052757;28;20146;-71
2023/10/29 11:53:37;;;;;;;7.78;2.33;;;;;;;;;;5052917;28;20074;-71
2023/10/29 11:56:07;;;;;;;9.50;2.55;;;;;;;;;;5052478;28;20037;-71
2023/10/29 11:58:34;;;;;;;9.25;2.13;;;;;;;;;;5052078;28;20091;-71
2023/10/29 12:01:00;;;;;;;12.45;1.65;;;;;;;;;;5052515;28;20032;-70
2023/10/29 12:03:26;;;;;;;8.15;2.22;;;;;;;;;;5051285;28;20028;-71
2023/10/29 12:05:54;;;;;;;9.38;2.00;;;;;;;;;;5052544;28;20023;-71
2023/10/29 12:08:20;;;;;;;10.90;2.10;;;;;;;;;;5052378;28;20021;-71
2023/10/29 12:10:47;;;;;;;9.70;1.95;;;;;;;;;;5052324;28;20031;-71
2023/10/29 12:13:14;;;;;;;6.45;1.83;;;;;;;;;;5052152;28;20032;-71
2023/10/29 12:15:40;;;;;;;6.72;1.60;;;;;;;;;;5052408;28;20409;-71
2023/10/29 12:18:06;;;;;;;14.93;2.75;;;;;;;;;;5052482;28;20029;-71
2023/10/29 12:20:33;;;;;;;6.68;1.80;;;;;;;;;;5052288;28;20374;-71
2023/10/29 12:23:02;;;;;;;9.30;2.17;;;;;;;;;;5052319;28;20036;-71
2023/10/29 12:25:29;;;;;;;6.18;1.52;;;;;;;;;;5052596;28;20018;-71
2023/10/29 12:27:56;;;;;;;7.80;1.55;;;;;;;;;;5052026;28;20029;-71
2023/10/29 12:30:37;;;;;;;5.90;1.60;;;;;;;;;;5052545;28;20387;-71
2023/10/29 12:33:23;;;;;;;7.43;1.90;;;;;;;;;;5052256;28;20029;-71
2023/10/29 12:35:50;;;;;;;10.63;1.90;;;;;;;;;;5052394;28;20027;-71
2023/10/29 12:38:17;;;;;;;9.93;1.70;;;;;;;;;;5052495;28;20029;-71
2023/10/29 12:41:04;;;;;;;11.25;2.10;;;;;;;;;;5051814;28;20017;-71
2023/10/29 12:43:36;;;;;;;7.70;1.75;;;;;;;;;;5052221;28;20029;-71
2023/10/29 12:46:03;;;;;;;10.65;2.30;;;;;;;;;;5052231;28;20025;-71
2023/10/29 12:48:30;;;;;;;11.88;1.88;;;;;;;;;;5052345;28;20020;-71
2023/10/29 12:50:56;;;;;;;7.43;1.45;;;;;;;;;;5052268;28;20025;-71
2023/10/29 12:53:23;;;;;;;4.68;1.33;;;;;;;;;;5052047;28;20021;-71
2023/10/29 12:55:50;;;;;;;7.82;1.38;;;;;;;;;;5051786;28;20486;-71
2023/10/29 12:58:17;;;;;;;11.48;1.67;;;;;;;;;;5052073;28;20043;-71
2023/10/29 13:00:43;;;;;;;7.47;1.27;;;;;;;;;;5051915;28;20478;-71
2023/10/29 13:03:10;;;;;;;7.05;1.70;;;;;;;;;;5051975;28;20025;-71
2023/10/29 13:05:37;;;;;;;7.45;1.92;;;;;;;;;;5051956;28;20356;-70
2023/10/29 13:08:04;;;;;;;10.02;2.30;;;;;;;;;;5052022;28;20029;-71
2023/10/29 13:10:32;;;;;;;8.00;1.60;;;;;;;;;;5051822;28;20152;-71
2023/10/29 13:13:00;;;;;;;10.80;1.83;;;;;;;;;;5052090;28;20033;-71
2023/10/29 13:15:26;;;;;;;7.35;1.80;;;;;;;;;;5053484;28;20070;-71
2023/10/29 13:17:53;;;;;;;10.43;1.80;;;;;;;;;;5055520;28;20021;-71
2023/10/29 13:20:20;;;;;;;11.50;1.83;;;;;;;;;;5055538;28;20031;-71
2023/10/29 13:22:47;;;;;;;9.52;2.08;;;;;;;;;;5055438;28;20417;-71
2023/10/29 13:25:13;;;;;;;12.10;1.90;;;;;;;;;;5055093;28;20480;-71
2023/10/29 13:27:42;;;;;;;12.48;1.80;;;;;;;;;;5055091;28;20025;-71
2023/10/29 13:30:09;;;;;;;12.07;2.10;;;;;;;;;;5053973;28;20025;-71
2023/10/29 13:32:35;;;;;;;7.95;1.90;;;;;;;;;;5055207;28;20017;-71
2023/10/29 13:35:02;;;;;;;12.07;1.70;;;;;;;;;;5055025;28;20036;-70
2023/10/29 13:37:30;;;;;;;11.85;1.90;;;;;;;;;;5055341;28;20044;-71
2023/10/29 13:39:57;;;;;;;8.65;2.33;;;;;;;;;;5054944;28;20021;-71
2023/10/29 13:42:23;;;;;;;7.90;1.90;;;;;;;;;;5055040;28;20031;-71
2023/10/29 13:44:51;;;;;;;9.43;1.90;;;;;;;;;;5055038;28;20028;-71
2023/10/29 13:47:18;;;;;;;10.13;1.90;;;;;;;;;;5054875;28;20033;-71
2023/10/29 13:49:45;;;;;;;10.40;2.42;;;;;;;;;;5055072;28;20021;-71
2023/10/29 13:52:12;;;;;;;11.00;1.98;;;;;;;;;;5054845;28;20382;-71
2023/10/29 13:54:39;;;;;;;16.25;2.10;;;;;;;;;;5054502;28;20488;-71
2023/10/29 13:57:05;;;;;;;13.20;2.10;;;;;;;;;;5054764;28;20029;-71
2023/10/29 13:59:32;;;;;;;9.00;1.80;;;;;;;;;;5054529;28;20052;-71
2023/10/29 14:01:58;;;;;;;9.00;2.40;;;;;;;;;;5054978;28;20033;-71
2023/10/29 14:04:24;;;;;;;15.45;2.10;;;;;;;;;;5054577;28;20017;-71
2023/10/29 14:06:51;;;;;;;15.90;2.40;;;;;;;;;;5054557;28;20115;-71
2023/10/29 14:09:17;;;;;;;10.98;2.40;;;;;;;;;;5054188;28;20025;-71
2023/10/29 14:11:43;;;;;;;19.25;2.55;;;;;;;;;;5054584;28;20033;-71
2023/10/29 14:14:09;;;;;;;13.95;2.30;;;;;;;;;;5053317;28;20036;-71
2023/10/29 14:16:42;;;;;;;12.63;2.72;;;;;;;;;;5054342;28;20547;-71
2023/10/29 14:19:09;;;;;;;10.25;2.53;;;;;;;;;;5054539;28;20028;-71
2023/10/29 14:21:36;;;;;;;10.48;2.55;;;;;;;;;;5054320;28;20022;-71
2023/10/29 14:24:03;;;;;;;14.32;2.28;;;;;;;;;;5053948;28;20021;-71
2023/10/29 14:26:30;;;;;;;12.70;2.58;;;;;;;;;;5054380;28;20029;-71
2023/10/29 14:28:56;;;;;;;13.20;3.13;;;;;;;;;;5054101;28;20021;-71
2023/10/29 14:31:23;;;;;;;12.20;2.80;;;;;;;;;;5054162;28;20567;-70
2023/10/29 14:33:50;;;;;;;15.10;3.10;;;;;;;;;;5054228;28;20035;-71
2023/10/29 14:36:18;;;;;;;12.27;2.78;;;;;;;;;;5053820;28;20382;-70
2023/10/29 14:38:44;;;;;;;13.90;2.53;;;;;;;;;;5053706;28;20025;-71